Aérodrome :
LOGIN :

S'inscrire | Disclaimer

   EN    FR    IT 

 










Légende :    VFR   VFR Marginal   IFR   IFR Intensif   IFR Très Intensif
Visi : 
Plafond : 
>= 8 km
>= 3000ft
5 à 8 km
1000 à 3000 ft
1500m à 5 km
500 à 1000 ft
800 à 1500m
200 à 500 ft
< 800m
< 200 ft
Symboles :   Orages  Brouillard  Fortes neiges  Fortes précipitations  Vent > 20 kt
SIGMETs :   Divers  Orages  Givrage  Turbulence  Onde Orograph.  Cendres Volcan.






- Altitude de l'aérodrome : 425 ft
- Code IATA : DTM


EDLW - Dortmund

DERNIER METAR :
  • 030750Z 08003KT 050V120 CAVOK 15/11 Q1014

METARs EXPIRÉS :
  • 030720Z 10004KT 060V130 CAVOK 14/11 Q1014
  • 030650Z 11005KT 080V150 CAVOK 13/11 Q1014
  • 030620Z 12004KT 090V180 CAVOK 13/11 Q1014
  • 030550Z 14005KT CAVOK 12/10 Q1014
  • 030520Z 15007KT CAVOK 11/10 Q1014
  • 030450Z 15006KT CAVOK 11/10 Q1014

TAF TAF EDLW
Valide du 03 à 06h jusqu'au 04 à 06h UTC


030500Z 0306/0406 14006KT 9999 BKN030
BECMG 0306/0309 VRB03KT
PROB30
TEMPO 0307/0310 4000 RA
TEMPO 0310/0318 08005KT SHRA BKN020CB
TEMPO 0400/0406 19005KT
PROB30
TEMPO 0404/0406 4000 BR BKN008



MET'MAP, la Météo Aéronautique d'un coup d'oeil ! - Copyright ORBIFLY Décembre 2007 - Disclaimer

ORBIFLY MET'MAP TEAM :

Programmation & Développement : Alexandra Zaïnal
Sur une idée originale de : Baudouin d'Aumeries
Assistance à la programmation : Marc-Olivier Méhu
Soutien technique & logistique : Manuel Goepfert

Contact : metmap@orbifly.com




SOURCES & CREDITS :

   NOAA